Time;durP1;ratioP1;P1;durP2;ratioP2;P2;SDS_P1;SDS_P2;PMS_P1;PMS_P2;Temp;Humidity;BMP_temperature;BMP_pressure;BME280_temperature;BME280_humidity;BME280_pressure;Samples;Min_cycle;Max_cycle;Signal;HPM_P1;HPM_P2
2022/11/11 00:01:12;;;;;;;;;;;10.00;99.90;;;;;;5109444;28;19930;-74
2022/11/11 00:03:39;;;;;;;;;;;10.00;99.90;;;;;;5104969;28;19924;-72
2022/11/11 00:06:06;;;;;;;;;;;10.00;99.90;;;;;;5112494;28;20022;-72
2022/11/11 00:08:34;;;;;;;;;;;10.00;99.90;;;;;;5110705;28;19930;-73
2022/11/11 00:11:02;;;;;;;;;;;10.00;99.90;;;;;;5112994;28;20487;-72
2022/11/11 00:13:29;;;;;;;;;;;9.90;99.90;;;;;;5103761;28;19924;-71
2022/11/11 00:15:56;;;;;;;;;;;10.00;99.90;;;;;;5107340;28;20142;-71
2022/11/11 00:26:37;;;;;;;;;;;10.00;99.90;;;;;;5112058;28;20049;-71
2022/11/11 00:29:04;;;;;;;;;;;10.00;99.90;;;;;;5111704;28;19931;-73
2022/11/11 00:31:31;;;;;;;;;;;10.00;99.90;;;;;;5111975;28;19930;-72
2022/11/11 00:33:57;;;;;;;;;;;10.00;99.90;;;;;;5112505;28;20015;-72
2022/11/11 00:36:23;;;;;;;;;;;10.00;99.90;;;;;;5111878;28;19930;-73
2022/11/11 00:38:51;;;;;;;;;;;10.00;99.90;;;;;;5111995;28;20365;-73
2022/11/11 00:41:20;;;;;;;;;;;10.00;99.90;;;;;;5104672;28;19987;-72
2022/11/11 00:43:47;;;;;;;;;;;10.00;99.90;;;;;;5115093;28;19971;-73
2022/11/11 00:51:43;;;;;;;;;;;10.00;99.90;;;;;;5111801;28;19931;-71
2022/11/11 00:54:10;;;;;;;;;;;10.00;99.90;;;;;;5112119;28;20317;-71
2022/11/11 00:56:38;;;;;;;;;;;9.90;99.90;;;;;;5113173;28;19924;-71
2022/11/11 00:59:05;;;;;;;;;;;9.90;99.90;;;;;;5115579;28;19930;-71
2022/11/11 01:01:32;;;;;;;;;;;9.90;99.90;;;;;;5114606;28;20464;-71
2022/11/11 01:03:59;;;;;;;;;;;9.90;99.90;;;;;;5114835;28;19999;-71
2022/11/11 01:06:26;;;;;;;;;;;9.90;99.90;;;;;;5116141;28;20010;-71
2022/11/11 01:08:53;;;;;;;;;;;9.90;99.90;;;;;;5116043;28;20002;-71
2022/11/11 01:11:21;;;;;;;;;;;9.90;99.90;;;;;;5113575;28;19924;-70
2022/11/11 01:13:49;;;;;;;;;;;9.90;99.90;;;;;;5115132;28;20019;-71
2022/11/11 01:16:17;;;;;;;;;;;9.90;99.90;;;;;;5114742;28;19924;-71
2022/11/11 01:18:43;;;;;;;;;;;9.90;99.90;;;;;;5115082;28;20003;-72
2022/11/11 01:21:11;;;;;;;;;;;9.90;99.90;;;;;;5113883;28;19930;-72
2022/11/11 01:23:38;;;;;;;;;;;9.90;99.90;;;;;;5115413;28;19924;-71
2022/11/11 01:26:06;;;;;;;;;;;9.80;99.90;;;;;;5115613;28;19939;-70
2022/11/11 01:28:33;;;;;;;;;;;9.90;99.90;;;;;;5115562;28;19924;-71
2022/11/11 01:31:05;;;;;;;;;;;9.90;99.90;;;;;;5114963;28;19923;-72
2022/11/11 01:33:32;;;;;;;;;;;9.90;99.90;;;;;;5114421;28;20298;-71
2022/11/11 01:36:03;;;;;;;;;;;9.90;99.90;;;;;;5113793;28;20011;-71
2022/11/11 01:38:29;;;;;;;;;;;9.90;99.90;;;;;;5113979;28;19931;-71
2022/11/11 01:40:56;;;;;;;;;;;9.80;99.90;;;;;;5115242;28;19930;-71
2022/11/11 01:43:23;;;;;;;;;;;9.90;99.90;;;;;;5113908;28;20031;-71
2022/11/11 01:45:53;;;;;;;;;;;9.80;99.90;;;;;;5115135;28;19928;-71
2022/11/11 01:51:10;;;;;;;;;;;9.80;99.90;;;;;;5113886;28;20420;-71
2022/11/11 01:53:37;;;;;;;;;;;9.80;99.90;;;;;;5113765;28;20015;-71
2022/11/11 01:56:04;;;;;;;;;;;9.80;99.90;;;;;;5103925;28;19923;-71
2022/11/11 01:58:31;;;;;;;;;;;9.70;99.90;;;;;;5113991;28;19986;-71
2022/11/11 02:00:58;;;;;;;;;;;9.80;99.90;;;;;;5112542;28;20018;-70
2022/11/11 02:03:28;;;;;;;;;;;9.80;99.90;;;;;;5103008;28;19930;-70
2022/11/11 02:05:56;;;;;;;;;;;9.80;99.90;;;;;;5114686;28;19965;-70
2022/11/11 02:08:32;;;;;;;;;;;9.70;99.90;;;;;;5106457;28;19931;-70
2022/11/11 02:11:00;;;;;;;;;;;9.80;99.90;;;;;;5107133;28;19923;-71
2022/11/11 02:16:11;;;;;;;;;;;9.70;99.90;;;;;;5113358;28;20439;-72
2022/11/11 02:18:39;;;;;;;;;;;9.70;99.90;;;;;;5112508;28;19930;-71
2022/11/11 02:21:05;;;;;;;;;;;9.70;99.90;;;;;;5112988;28;19923;-70
2022/11/11 02:23:34;;;;;;;;;;;9.60;99.90;;;;;;5112509;28;19938;-71
2022/11/11 02:26:04;;;;;;;;;;;9.60;99.90;;;;;;5115609;28;20461;-72
2022/11/11 02:28:32;;;;;;;;;;;9.60;99.90;;;;;;5125195;28;19928;-72
2022/11/11 02:30:58;;;;;;;;;;;9.60;99.90;;;;;;5113693;28;20035;-72
2022/11/11 02:33:25;;;;;;;;;;;9.60;99.90;;;;;;5111924;28;20423;-72
2022/11/11 02:35:55;;;;;;;;;;;9.60;99.90;;;;;;5113811;28;19924;-71
2022/11/11 02:38:22;;;;;;;;;;;9.50;99.90;;;;;;5113204;28;19923;-71
2022/11/11 02:43:32;;;;;;;;;;;9.50;99.90;;;;;;5108011;28;20340;-72
2022/11/11 02:45:59;;;;;;;;;;;9.50;99.90;;;;;;5113706;28;19930;-72
2022/11/11 02:48:26;;;;;;;;;;;9.50;99.90;;;;;;5113876;28;20367;-71
2022/11/11 02:50:53;;;;;;;;;;;9.50;99.90;;;;;;5114064;28;20350;-72
2022/11/11 02:53:20;;;;;;;;;;;9.50;99.90;;;;;;5113296;28;20461;-72
2022/11/11 02:55:46;;;;;;;;;;;9.50;99.90;;;;;;5113646;28;19928;-72
2022/11/11 02:58:13;;;;;;;;;;;9.50;99.90;;;;;;5113279;28;19927;-71
2022/11/11 03:00:41;;;;;;;;;;;9.50;99.90;;;;;;5112067;28;19924;-71
2022/11/11 03:03:08;;;;;;;;;;;9.50;99.90;;;;;;5112046;28;19923;-72
2022/11/11 03:05:35;;;;;;;;;;;9.50;99.90;;;;;;5113242;28;19934;-72
2022/11/11 03:08:02;;;;;;;;;;;9.50;99.90;;;;;;5113637;28;19941;-72
2022/11/11 03:10:28;;;;;;;;;;;9.40;99.90;;;;;;5114261;28;20366;-72
2022/11/11 03:12:55;;;;;;;;;;;9.40;99.90;;;;;;5111719;28;20314;-71
2022/11/11 03:15:22;;;;;;;;;;;9.30;99.90;;;;;;5112840;28;19923;-72
2022/11/11 03:17:50;;;;;;;;;;;9.40;99.90;;;;;;5113183;28;19924;-71
2022/11/11 03:23:03;;;;;;;;;;;9.40;99.90;;;;;;5111316;28;19947;-70
2022/11/11 03:25:38;;;;;;;;;;;9.30;99.90;;;;;;5112549;28;20271;-71
2022/11/11 03:28:05;;;;;;;;;;;9.30;99.90;;;;;;5111946;28;20002;-71
2022/11/11 03:30:32;;;;;;;;;;;9.30;99.90;;;;;;5103678;28;19934;-70
2022/11/11 03:33:00;;;;;;;;;;;9.30;99.90;;;;;;5111970;28;20007;-71
2022/11/11 03:35:27;;;;;;;;;;;9.30;99.90;;;;;;5110018;28;20443;-71
2022/11/11 03:40:38;;;;;;;;;;;9.30;99.90;;;;;;5110222;28;19934;-71
2022/11/11 03:43:05;;;;;;;;;;;9.30;99.90;;;;;;5112308;28;19924;-70
2022/11/11 03:45:31;;;;;;;;;;;9.30;99.90;;;;;;5112508;28;20457;-71
2022/11/11 03:47:58;;;;;;;;;;;9.30;99.90;;;;;;5112940;28;19934;-71
2022/11/11 03:50:26;;;;;;;;;;;9.30;99.90;;;;;;5112654;28;19930;-70
2022/11/11 03:52:53;;;;;;;;;;;9.20;99.90;;;;;;5112173;28;20023;-71
2022/11/11 03:55:19;;;;;;;;;;;9.30;99.90;;;;;;5112498;28;20016;-71
2022/11/11 03:57:46;;;;;;;;;;;9.30;99.90;;;;;;5112182;28;20015;-70
2022/11/11 04:00:14;;;;;;;;;;;9.20;99.90;;;;;;5111705;28;20015;-71
2022/11/11 04:10:55;;;;;;;;;;;9.20;99.90;;;;;;5109533;28;19931;-70
2022/11/11 04:16:06;;;;;;;;;;;9.20;99.90;;;;;;5111494;28;19977;-71
2022/11/11 04:25:47;;;;;;;;;;;9.10;99.90;;;;;;5112275;28;20321;-70
2022/11/11 04:26:48;;;;;;;;;;;9.10;99.90;;;;;;5111782;28;19928;-71
2022/11/11 04:29:30;;;;;;;;;;;9.10;99.90;;;;;;5104696;28;19931;-71
2022/11/11 04:34:42;;;;;;;;;;;9.10;99.90;;;;;;5116575;28;19931;-71
2022/11/11 04:37:10;;;;;;;;;;;9.10;99.90;;;;;;5116375;28;19924;-71
2022/11/11 04:42:22;;;;;;;;;;;9.00;99.90;;;;;;5109742;28;20377;-70
2022/11/11 04:47:33;;;;;;;;;;;9.00;99.90;;;;;;5116358;28;19953;-71
2022/11/11 04:49:59;;;;;;;;;;;9.00;99.90;;;;;;5116414;28;20018;-71
2022/11/11 04:52:28;;;;;;;;;;;9.00;99.90;;;;;;5116147;28;19930;-70
2022/11/11 04:57:40;;;;;;;;;;;9.00;99.90;;;;;;5107190;28;20403;-71
2022/11/11 05:00:07;;;;;;;;;;;8.90;99.90;;;;;;5115333;28;20390;-70
2022/11/11 05:05:18;;;;;;;;;;;8.90;99.90;;;;;;5115544;28;19930;-70
2022/11/11 05:10:26;;;;;;;;;;;8.90;99.90;;;;;;5069123;28;19927;-69
2022/11/11 05:21:19;;;;;;;;;;;8.90;99.90;;;;;;5115581;28;19930;-70
2022/11/11 05:21:22;;;;;;;;;;;8.90;99.90;;;;;;5114816;28;19978;-70
2022/11/11 05:26:34;;;;;;;;;;;8.80;99.90;;;;;;5106585;28;20467;-70
2022/11/11 05:29:01;;;;;;;;;;;8.90;99.90;;;;;;5114442;28;20014;-69
2022/11/11 05:31:28;;;;;;;;;;;8.90;99.90;;;;;;5115181;28;20374;-70
2022/11/11 05:33:54;;;;;;;;;;;8.80;99.90;;;;;;5113917;28;20016;-70
2022/11/11 05:36:21;;;;;;;;;;;8.80;99.90;;;;;;5113537;28;20265;-69
2022/11/11 05:38:49;;;;;;;;;;;8.80;99.90;;;;;;5114536;28;19924;-70
2022/11/11 05:41:16;;;;;;;;;;;8.80;99.90;;;;;;5113366;28;19924;-71
2022/11/11 05:43:42;;;;;;;;;;;8.80;99.90;;;;;;5114903;28;20034;-70
2022/11/11 05:46:09;;;;;;;;;;;8.80;99.90;;;;;;5115683;28;19923;-70
2022/11/11 05:49:13;;;;;;;;;;;8.80;99.90;;;;;;5114646;28;19930;-70
2022/11/11 05:51:27;;;;;;;;;;;8.80;99.90;;;;;;5114613;28;19932;-69
2022/11/11 05:53:56;;;;;;;;;;;8.70;99.90;;;;;;5102708;28;19924;-70
2022/11/11 05:56:23;;;;;;;;;;;8.70;99.90;;;;;;5107049;28;19924;-70
2022/11/11 05:58:50;;;;;;;;;;;8.70;99.90;;;;;;5114934;28;20316;-70
2022/11/11 06:01:17;;;;;;;;;;;8.70;99.90;;;;;;5114695;28;19950;-70
2022/11/11 06:03:43;;;;;;;;;;;8.70;99.90;;;;;;5115941;28;20027;-70
2022/11/11 06:06:10;;;;;;;;;;;8.70;99.90;;;;;;5113659;28;19932;-70
2022/11/11 06:08:37;;;;;;;;;;;8.70;99.90;;;;;;5112803;28;19923;-69
2022/11/11 06:11:05;;;;;;;;;;;8.70;99.90;;;;;;5113422;28;20384;-70
2022/11/11 06:13:32;;;;;;;;;;;8.70;99.90;;;;;;5113472;28;19924;-70
2022/11/11 06:15:59;;;;;;;;;;;8.70;99.90;;;;;;5113397;28;20259;-70
2022/11/11 06:18:26;;;;;;;;;;;8.70;99.90;;;;;;5114304;28;19946;-69
2022/11/11 06:20:53;;;;;;;;;;;8.70;99.90;;;;;;5114324;28;20022;-69
2022/11/11 06:23:19;;;;;;;;;;;8.70;99.90;;;;;;5112949;28;19930;-70
2022/11/11 06:28:30;;;;;;;;;;;8.60;99.90;;;;;;5084150;28;20015;-70
2022/11/11 06:30:57;;;;;;;;;;;8.60;99.90;;;;;;5113853;28;20022;-69
2022/11/11 06:33:24;;;;;;;;;;;8.60;99.90;;;;;;5112564;28;19947;-70
2022/11/11 06:35:50;;;;;;;;;;;8.60;99.90;;;;;;5113409;28;20306;-70
2022/11/11 06:38:17;;;;;;;;;;;8.50;99.90;;;;;;5112941;28;20297;-70
2022/11/11 06:40:44;;;;;;;;;;;8.50;99.90;;;;;;5113225;28;20010;-69
2022/11/11 06:43:10;;;;;;;;;;;8.50;99.90;;;;;;5112747;28;20018;-69
2022/11/11 06:45:38;;;;;;;;;;;8.50;99.90;;;;;;5114140;28;19930;-69
2022/11/11 06:48:05;;;;;;;;;;;8.50;99.90;;;;;;5112753;28;19932;-69
2022/11/11 06:50:32;;;;;;;;;;;8.50;99.90;;;;;;5114013;28;20452;-70
2022/11/11 06:53:03;;;;;;;;;;;8.50;99.90;;;;;;5111181;28;19971;-70
2022/11/11 06:55:30;;;;;;;;;;;8.50;99.90;;;;;;5107469;28;20034;-70
2022/11/11 06:58:04;;;;;;;;;;;8.50;99.90;;;;;;5113764;28;19930;-70
2022/11/11 07:00:30;;;;;;;;;;;8.50;99.90;;;;;;5111096;28;20015;-69
2022/11/11 07:02:58;;;;;;;;;;;8.50;99.90;;;;;;5112927;28;20386;-70
2022/11/11 07:05:25;;;;;;;;;;;8.50;99.90;;;;;;5113178;28;20349;-69
2022/11/11 07:07:51;;;;;;;;;;;8.60;99.90;;;;;;5113555;28;20446;-70
2022/11/11 07:10:18;;;;;;;;;;;8.60;99.90;;;;;;5113682;28;20351;-70
2022/11/11 07:12:45;;;;;;;;;;;8.60;99.90;;;;;;5113668;28;20375;-70
2022/11/11 07:15:12;;;;;;;;;;;8.60;99.90;;;;;;5113093;28;20353;-69
2022/11/11 07:17:38;;;;;;;;;;;8.60;99.90;;;;;;5111864;28;20371;-69
2022/11/11 07:20:07;;;;;;;;;;;8.60;99.90;;;;;;5094672;28;19971;-68
2022/11/11 07:22:35;;;;;;;;;;;8.60;99.90;;;;;;5098464;28;19971;-68
2022/11/11 07:25:02;;;;;;;;;;;8.70;99.90;;;;;;5113366;28;20019;-69
2022/11/11 07:27:29;;;;;;;;;;;8.60;99.90;;;;;;5112724;28;20347;-70
2022/11/11 07:29:55;;;;;;;;;;;8.70;99.90;;;;;;5112416;28;20000;-70
2022/11/11 07:32:22;;;;;;;;;;;8.70;99.90;;;;;;5112760;28;19931;-69
2022/11/11 07:34:49;;;;;;;;;;;8.70;99.90;;;;;;5110984;28;19993;-68
2022/11/11 07:37:17;;;;;;;;;;;8.70;99.90;;;;;;5111203;28;19924;-68
2022/11/11 07:39:44;;;;;;;;;;;8.70;99.90;;;;;;5112533;28;20399;-68
2022/11/11 07:42:11;;;;;;;;;;;8.70;99.90;;;;;;5111648;28;19931;-69
2022/11/11 07:44:39;;;;;;;;;;;8.70;99.90;;;;;;5110868;28;20392;-69
2022/11/11 07:47:06;;;;;;;;;;;8.70;99.90;;;;;;5112433;28;19928;-69
2022/11/11 07:49:32;;;;;;;;;;;8.70;99.90;;;;;;5105185;28;20022;-69
2022/11/11 07:51:59;;;;;;;;;;;8.80;99.90;;;;;;5104173;28;19931;-69
2022/11/11 07:54:27;;;;;;;;;;;8.80;99.90;;;;;;5112345;28;20019;-68
2022/11/11 07:56:54;;;;;;;;;;;8.80;99.90;;;;;;5112040;28;19924;-70
2022/11/11 07:59:20;;;;;;;;;;;8.80;99.90;;;;;;5112312;28;19923;-69
2022/11/11 08:01:47;;;;;;;;;;;8.80;99.90;;;;;;5112302;28;19923;-69
2022/11/11 08:04:14;;;;;;;;;;;8.80;99.90;;;;;;5112627;28;20281;-69
2022/11/11 08:06:40;;;;;;;;;;;8.80;99.90;;;;;;5111451;28;20022;-70
2022/11/11 08:09:07;;;;;;;;;;;8.90;99.90;;;;;;5108533;28;20010;-69
2022/11/11 08:14:20;;;;;;;;;;;9.00;99.90;;;;;;5111998;28;19997;-68
2022/11/11 08:16:46;;;;;;;;;;;9.00;99.90;;;;;;5111030;28;20018;-69
2022/11/11 08:19:13;;;;;;;;;;;9.10;99.90;;;;;;5112235;28;19924;-69
2022/11/11 08:21:40;;;;;;;;;;;9.10;99.90;;;;;;5111752;28;20412;-68
2022/11/11 08:24:07;;;;;;;;;;;9.10;99.90;;;;;;5111789;28;19977;-69
2022/11/11 08:26:35;;;;;;;;;;;9.10;99.90;;;;;;5112295;28;19928;-69
2022/11/11 08:29:02;;;;;;;;;;;9.20;99.90;;;;;;5111929;28;20458;-69
2022/11/11 08:31:29;;;;;;;;;;;9.30;99.90;;;;;;5112410;28;19930;-68
2022/11/11 08:33:55;;;;;;;;;;;9.30;99.90;;;;;;5110883;28;19924;-68
2022/11/11 08:36:23;;;;;;;;;;;9.40;99.90;;;;;;5103436;28;19924;-68
2022/11/11 08:38:50;;;;;;;;;;;9.50;99.90;;;;;;5107616;28;19927;-67
2022/11/11 08:41:17;;;;;;;;;;;9.60;99.90;;;;;;5109330;28;20036;-68
2022/11/11 08:43:45;;;;;;;;;;;9.60;99.90;;;;;;5107681;28;19932;-68
2022/11/11 08:46:11;;;;;;;;;;;9.60;99.90;;;;;;5102015;28;19930;-68
2022/11/11 08:48:38;;;;;;;;;;;9.50;99.90;;;;;;5109233;28;20305;-69
2022/11/11 08:51:05;;;;;;;;;;;9.50;99.90;;;;;;5111395;28;20014;-69
2022/11/11 08:53:32;;;;;;;;;;;9.60;99.90;;;;;;5110721;28;19924;-69
2022/11/11 08:56:00;;;;;;;;;;;9.60;99.90;;;;;;5104444;28;19947;-68
2022/11/11 08:58:27;;;;;;;;;;;9.60;99.90;;;;;;5106706;28;20293;-68
2022/11/11 09:00:55;;;;;;;;;;;9.60;99.90;;;;;;5105025;28;19934;-68
2022/11/11 09:03:22;;;;;;;;;;;9.60;99.90;;;;;;5108586;28;19928;-68
2022/11/11 09:05:49;;;;;;;;;;;9.60;99.90;;;;;;5109200;28;19930;-69
2022/11/11 09:08:15;;;;;;;;;;;9.50;99.90;;;;;;5108031;28;20020;-69
2022/11/11 09:10:42;;;;;;;;;;;9.50;99.90;;;;;;5106415;28;20328;-68
2022/11/11 09:13:09;;;;;;;;;;;9.60;99.90;;;;;;5107764;28;19924;-69
2022/11/11 09:15:35;;;;;;;;;;;9.60;99.90;;;;;;5101265;28;20313;-68
2022/11/11 09:18:03;;;;;;;;;;;9.70;99.90;;;;;;5110283;28;20394;-69
2022/11/11 09:20:30;;;;;;;;;;;9.80;99.90;;;;;;5110228;28;19924;-68
2022/11/11 09:22:57;;;;;;;;;;;9.90;99.90;;;;;;5109386;27;20456;-69
2022/11/11 09:25:23;;;;;;;;;;;9.90;99.90;;;;;;5109638;28;20386;-70
2022/11/11 09:27:57;;;;;;;;;;;9.90;99.90;;;;;;5108732;28;19927;-69
2022/11/11 09:30:24;;;;;;;;;;;10.10;99.90;;;;;;5112565;28;19930;-69
2022/11/11 09:32:50;;;;;;;;;;;10.20;99.90;;;;;;5112794;28;19943;-69
2022/11/11 09:35:19;;;;;;;;;;;10.40;99.90;;;;;;5107207;28;20011;-69
2022/11/11 09:37:55;;;;;;;;;;;10.30;99.90;;;;;;5106698;28;19931;-69
2022/11/11 09:40:22;;;;;;;;;;;10.40;99.90;;;;;;5108452;28;20000;-69
2022/11/11 09:42:52;;;;;;;;;;;10.60;99.90;;;;;;5110253;27;20011;-69
2022/11/11 09:45:20;;;;;;;;;;;10.60;99.90;;;;;;5109256;28;20014;-69
2022/11/11 09:47:51;;;;;;;;;;;10.60;99.90;;;;;;5110040;28;19930;-68
2022/11/11 09:50:21;;;;;;;;;;;10.60;99.90;;;;;;5112228;28;19924;-69
2022/11/11 09:52:51;;;;;;;;;;;10.70;99.90;;;;;;5109343;28;19924;-69
2022/11/11 09:55:21;;;;;;;;;;;10.70;99.90;;;;;;5111444;28;20015;-69
2022/11/11 09:57:50;;;;;;;;;;;10.70;99.90;;;;;;5112748;27;19947;-69
2022/11/11 10:00:18;;;;;;;;;;;10.70;99.90;;;;;;5097726;27;19924;-70
2022/11/11 10:02:47;;;;;;;;;;;10.60;99.90;;;;;;5107866;28;20007;-67
2022/11/11 10:05:17;;;;;;;;;;;10.60;99.90;;;;;;5109245;28;20015;-67
2022/11/11 10:07:46;;;;;;;;;;;10.70;99.90;;;;;;5107466;28;19930;-69
2022/11/11 10:10:17;;;;;;;;;;;10.90;99.90;;;;;;5104524;27;21030;-68
2022/11/11 10:12:47;;;;;;;;;;;11.00;99.90;;;;;;5111480;28;19924;-68
2022/11/11 10:15:15;;;;;;;;;;;11.20;99.90;;;;;;5112362;28;19924;-68
2022/11/11 10:17:46;;;;;;;;;;;11.30;99.90;;;;;;5112914;28;19924;-69
2022/11/11 10:20:15;;;;;;;;;;;11.40;99.90;;;;;;5111843;28;19924;-69
2022/11/11 10:22:42;;;;;;;;;;;11.40;99.90;;;;;;5113218;28;20006;-68
2022/11/11 10:25:19;;;;;;;;;;;11.50;99.90;;;;;;5106003;28;19927;-68
2022/11/11 10:27:47;;;;;;;;;;;11.50;99.90;;;;;;5109780;27;19924;-69
2022/11/11 10:30:16;;;;;;;;;;;11.50;99.90;;;;;;5105212;27;20010;-70
2022/11/11 10:32:44;;;;;;;;;;;11.50;99.90;;;;;;5103202;28;19978;-71
2022/11/11 10:35:16;;;;;;;;;;;11.50;99.90;;;;;;5104341;28;19971;-70
2022/11/11 10:37:43;;;;;;;;;;;11.60;99.90;;;;;;5108383;28;19931;-71
2022/11/11 10:40:15;;;;;;;;;;;11.70;99.90;;;;;;5100237;28;20391;-70
2022/11/11 10:42:43;;;;;;;;;;;11.70;99.90;;;;;;5102761;28;19928;-70
2022/11/11 10:45:13;;;;;;;;;;;11.70;99.90;;;;;;5103221;28;19930;-70
2022/11/11 10:47:43;;;;;;;;;;;11.90;99.90;;;;;;5109064;28;19934;-70
2022/11/11 10:50:15;;;;;;;;;;;11.90;99.90;;;;;;5105000;28;19930;-69
2022/11/11 10:52:45;;;;;;;;;;;12.00;99.90;;;;;;5099505;28;20342;-69
2022/11/11 10:55:14;;;;;;;;;;;12.10;99.90;;;;;;5095402;28;20290;-70
2022/11/11 10:57:45;;;;;;;;;;;12.10;99.90;;;;;;5098255;28;20048;-69
2022/11/11 11:00:14;;;;;;;;;;;12.10;99.90;;;;;;5101393;28;20006;-70
2022/11/11 11:02:45;;;;;;;;;;;12.10;99.90;;;;;;5102732;28;19928;-70
2022/11/11 11:05:14;;;;;;;;;;;12.20;99.90;;;;;;5106745;28;20018;-70
2022/11/11 11:07:43;;;;;;;;;;;12.30;99.90;;;;;;5097304;28;20311;-70
2022/11/11 11:10:13;;;;;;;;;;;12.30;99.90;;;;;;5098273;28;19923;-71
2022/11/11 11:12:43;;;;;;;;;;;12.30;99.90;;;;;;5102681;28;20010;-70
2022/11/11 11:15:11;;;;;;;;;;;12.30;99.90;;;;;;5102849;28;20380;-68
2022/11/11 11:17:42;;;;;;;;;;;12.30;99.90;;;;;;5112418;28;19992;-68
2022/11/11 11:20:11;;;;;;;;;;;12.40;99.90;;;;;;5104952;28;20030;-68
2022/11/11 11:22:51;;;;;;;;;;;12.40;99.90;;;;;;5102575;28;19931;-69
2022/11/11 11:25:18;;;;;;;;;;;12.50;99.90;;;;;;5110062;28;20548;-69
2022/11/11 11:27:45;;;;;;;;;;;12.50;99.90;;;;;;5112540;27;20420;-69
2022/11/11 11:30:15;;;;;;;;;;;12.60;99.90;;;;;;5104759;28;19924;-68
2022/11/11 11:32:55;;;;;;;;;;;12.40;99.90;;;;;;5103688;27;19963;-69
2022/11/11 11:35:32;;;;;;;;;;;12.50;99.90;;;;;;5104074;27;19928;-69
2022/11/11 11:37:59;;;;;;;;;;;12.40;99.90;;;;;;5095297;28;19946;-69
2022/11/11 11:40:27;;;;;;;;;;;12.50;99.90;;;;;;5106628;28;19958;-69
2022/11/11 11:42:54;;;;;;;;;;;12.50;99.90;;;;;;5104786;28;19924;-71
2022/11/11 11:45:22;;;;;;;;;;;12.50;99.90;;;;;;5097045;28;20014;-70
2022/11/11 11:47:58;;;;;;;;;;;12.60;99.90;;;;;;5098714;28;19924;-70
2022/11/11 11:50:30;;;;;;;;;;;12.60;99.90;;;;;;5104991;28;19934;-68
2022/11/11 11:53:02;;;;;;;;;;;12.80;99.90;;;;;;5104669;28;20469;-70
2022/11/11 11:55:31;;;;;;;;;;;12.70;99.90;;;;;;5109447;28;20357;-69
2022/11/11 11:58:03;;;;;;;;;;;12.70;99.90;;;;;;5105136;28;20018;-69
2022/11/11 12:00:31;;;;;;;;;;;12.60;99.90;;;;;;5109599;28;20359;-69
2022/11/11 12:03:17;;;;;;;;;;;12.70;99.90;;;;;;5104264;28;20001;-69
2022/11/11 12:05:45;;;;;;;;;;;12.70;99.90;;;;;;5094652;28;20371;-70
2022/11/11 12:08:26;;;;;;;;;;;12.90;99.90;;;;;;5102244;28;19971;-71
2022/11/11 12:10:57;;;;;;;;;;;13.00;99.90;;;;;;5108591;28;20365;-71
2022/11/11 12:13:31;;;;;;;;;;;13.00;99.90;;;;;;5105280;28;19931;-70
2022/11/11 12:16:04;;;;;;;;;;;13.00;99.90;;;;;;5104693;28;20116;-71
2022/11/11 12:18:46;;;;;;;;;;;13.10;99.90;;;;;;5108314;28;19982;-71
2022/11/11 12:21:14;;;;;;;;;;;13.10;99.90;;;;;;5103480;28;20014;-70
2022/11/11 12:23:51;;;;;;;;;;;13.30;99.90;;;;;;5104600;28;20006;-70
2022/11/11 12:26:20;;;;;;;;;;;13.40;99.90;;;;;;5099156;28;20401;-71
2022/11/11 12:28:55;;;;;;;;;;;13.40;99.90;;;;;;5105590;28;19932;-71
2022/11/11 12:31:29;;;;;;;;;;;13.40;99.90;;;;;;5105251;28;19963;-71
2022/11/11 12:34:17;;;;;;;;;;;13.50;99.90;;;;;;5102062;28;19924;-71
2022/11/11 12:36:51;;;;;;;;;;;13.60;99.90;;;;;;5071631;28;20409;-71
2022/11/11 12:39:36;;;;;;;;;;;13.80;99.90;;;;;;5106421;28;19924;-70
2022/11/11 12:42:10;;;;;;;;;;;13.90;99.90;;;;;;5084772;28;19923;-73
2022/11/11 12:44:39;;;;;;;;;;;13.90;99.90;;;;;;5105181;28;19999;-71
2022/11/11 12:47:16;;;;;;;;;;;13.90;99.90;;;;;;5103232;28;20378;-71
2022/11/11 12:49:49;;;;;;;;;;;13.80;99.90;;;;;;5109311;28;19966;-71
2022/11/11 12:52:23;;;;;;;;;;;13.70;99.90;;;;;;5110126;28;19935;-71
2022/11/11 12:54:59;;;;;;;;;;;13.80;99.90;;;;;;5112473;28;19928;-71
2022/11/11 12:57:28;;;;;;;;;;;13.80;99.90;;;;;;5106830;28;20257;-71
2022/11/11 13:00:04;;;;;;;;;;;13.80;99.90;;;;;;5112030;28;20011;-72
2022/11/11 13:02:43;;;;;;;;;;;13.70;99.90;;;;;;5104975;28;20014;-71
2022/11/11 13:05:11;;;;;;;;;;;13.70;99.90;;;;;;5106437;28;19923;-72
2022/11/11 13:07:50;;;;;;;;;;;13.60;99.90;;;;;;5110736;28;19924;-71
2022/11/11 13:10:24;;;;;;;;;;;13.70;99.90;;;;;;5098252;28;19924;-71
2022/11/11 13:12:54;;;;;;;;;;;13.70;99.90;;;;;;5111681;28;19928;-70
2022/11/11 13:15:22;;;;;;;;;;;13.70;99.90;;;;;;5110757;28;20018;-71
2022/11/11 13:17:49;;;;;;;;;;;13.70;99.90;;;;;;5111652;28;19923;-72
2022/11/11 13:20:19;;;;;;;;;;;13.60;99.90;;;;;;5103734;28;19931;-72
2022/11/11 13:22:48;;;;;;;;;;;13.50;99.90;;;;;;5107482;28;19927;-71
2022/11/11 13:25:16;;;;;;;;;;;13.50;99.90;;;;;;5105068;28;19967;-71
2022/11/11 13:27:48;;;;;;;;;;;13.40;99.90;;;;;;5107306;28;19923;-71
2022/11/11 13:30:35;;;;;;;;;;;13.50;99.90;;;;;;5109424;28;20336;-71
2022/11/11 13:33:04;;;;;;;;;;;13.50;99.90;;;;;;5108540;28;19962;-72
2022/11/11 13:35:33;;;;;;;;;;;13.40;99.90;;;;;;5112228;28;19930;-72
2022/11/11 13:38:01;;;;;;;;;;;13.40;99.90;;;;;;5104367;28;19935;-71
2022/11/11 13:40:33;;;;;;;;;;;13.40;99.90;;;;;;5106445;28;19924;-70
2022/11/11 13:43:00;;;;;;;;;;;13.40;99.90;;;;;;5106746;28;20010;-70
2022/11/11 13:45:28;;;;;;;;;;;13.50;99.90;;;;;;5103981;28;19928;-72
2022/11/11 13:47:55;;;;;;;;;;;13.50;99.90;;;;;;5110885;28;19923;-71
2022/11/11 13:50:25;;;;;;;;;;;13.60;99.90;;;;;;5109487;28;19924;-72
2022/11/11 13:52:56;;;;;;;;;;;13.50;99.90;;;;;;5110169;28;19935;-72
2022/11/11 13:55:27;;;;;;;;;;;13.50;99.90;;;;;;5109504;28;19978;-72
2022/11/11 13:57:54;;;;;;;;;;;13.50;99.90;;;;;;5112169;28;19924;-72
2022/11/11 14:00:25;;;;;;;;;;;13.50;99.90;;;;;;5110172;28;20013;-72
2022/11/11 14:03:25;;;;;;;;;;;13.40;99.90;;;;;;5103047;28;19924;-73
2022/11/11 14:06:22;;;;;;;;;;;13.40;99.90;;;;;;5107699;28;19932;-72
2022/11/11 14:08:52;;;;;;;;;;;13.30;99.90;;;;;;5104177;28;20381;-74
2022/11/11 14:11:29;;;;;;;;;;;13.20;99.90;;;;;;5111359;28;19924;-73
2022/11/11 14:13:56;;;;;;;;;;;13.20;99.90;;;;;;5105609;28;19930;-73
2022/11/11 14:16:41;;;;;;;;;;;13.20;99.90;;;;;;5099698;28;19932;-73
2022/11/11 14:19:28;;;;;;;;;;;13.20;99.90;;;;;;5113045;28;19978;-73
2022/11/11 14:21:55;;;;;;;;;;;13.20;99.90;;;;;;5109020;28;20279;-75
2022/11/11 14:24:22;;;;;;;;;;;13.10;99.90;;;;;;5106509;28;19938;-74
2022/11/11 14:27:00;;;;;;;;;;;13.00;99.90;;;;;;5107694;28;19983;-73
2022/11/11 14:29:33;;;;;;;;;;;13.00;99.90;;;;;;5106649;28;20018;-73
2022/11/11 14:32:09;;;;;;;;;;;12.90;99.90;;;;;;5105077;28;19924;-74
2022/11/11 14:34:48;;;;;;;;;;;12.90;99.90;;;;;;5109632;28;20026;-74
2022/11/11 14:37:21;;;;;;;;;;;12.90;99.90;;;;;;5108455;28;19955;-75
2022/11/11 14:39:50;;;;;;;;;;;12.80;99.90;;;;;;5107478;28;19932;-74
2022/11/11 14:42:35;;;;;;;;;;;12.80;99.90;;;;;;5108125;28;19932;-74
2022/11/11 14:45:05;;;;;;;;;;;12.70;99.90;;;;;;5101425;28;20290;-70
2022/11/11 14:47:33;;;;;;;;;;;12.70;99.90;;;;;;5102504;28;20266;-70
2022/11/11 14:49:59;;;;;;;;;;;12.60;99.90;;;;;;5105579;28;19973;-71
2022/11/11 14:52:30;;;;;;;;;;;12.50;99.90;;;;;;5107325;28;20026;-72
2022/11/11 14:55:05;;;;;;;;;;;12.50;99.90;;;;;;5108985;28;19978;-71
2022/11/11 14:57:33;;;;;;;;;;;12.50;99.90;;;;;;5105611;28;19988;-70
2022/11/11 15:00:02;;;;;;;;;;;12.50;99.90;;;;;;5106344;28;20014;-72
2022/11/11 15:02:32;;;;;;;;;;;12.40;99.90;;;;;;5109149;28;19923;-72
2022/11/11 15:05:00;;;;;;;;;;;12.40;99.90;;;;;;5110738;28;20027;-71
2022/11/11 15:07:31;;;;;;;;;;;12.30;99.90;;;;;;5104294;28;19959;-72
2022/11/11 15:10:08;;;;;;;;;;;12.20;99.90;;;;;;5105967;28;20241;-72
2022/11/11 15:12:57;;;;;;;;;;;12.20;99.90;;;;;;5111124;28;19932;-71
2022/11/11 15:15:25;;;;;;;;;;;12.10;99.90;;;;;;5103798;28;19962;-71
2022/11/11 15:18:01;;;;;;;;;;;12.10;99.90;;;;;;5100003;28;20019;-71
2022/11/11 15:20:35;;;;;;;;;;;12.00;99.90;;;;;;5109504;28;19991;-70
2022/11/11 15:23:16;;;;;;;;;;;12.00;99.90;;;;;;5100662;28;20002;-70
2022/11/11 15:25:47;;;;;;;;;;;11.90;99.90;;;;;;5103577;28;19923;-71
2022/11/11 15:28:19;;;;;;;;;;;11.80;99.90;;;;;;5109249;28;19923;-71
2022/11/11 15:31:00;;;;;;;;;;;11.80;99.90;;;;;;5111714;28;19930;-71
2022/11/11 15:33:35;;;;;;;;;;;11.70;99.90;;;;;;5107735;28;20018;-71
2022/11/11 15:36:05;;;;;;;;;;;11.70;99.90;;;;;;5102571;28;20386;-71
2022/11/11 15:38:31;;;;;;;;;;;11.60;99.90;;;;;;5110048;28;20012;-72
2022/11/11 15:40:59;;;;;;;;;;;11.50;99.90;;;;;;5105286;28;19979;-71
2022/11/11 15:43:27;;;;;;;;;;;11.40;99.90;;;;;;5109001;28;20010;-70
2022/11/11 15:45:55;;;;;;;;;;;11.40;99.90;;;;;;5112349;28;20010;-70
2022/11/11 15:48:23;;;;;;;;;;;11.40;99.90;;;;;;5100826;28;19923;-71
2022/11/11 15:50:51;;;;;;;;;;;11.30;99.90;;;;;;5112644;28;19935;-71